KTLH/TLH METAR and TAF weather

Enter ICAO airport designator
Station Type Date Time Source
KTLH METAR 2021/07/30 22:53 UTC NOAA

KTLH 302253Z 18008KT 10SM FEW038 SCT250 33/25 A2997 RMK AO2 SLP147 T03280250


Station Type Date Time Source
KTLH Decoded METAR 2021/07/30 22:53 UTC NOAA

TALLAHASSEE REGIONAL AIRPORT , FL, United States (KTLH) 30-24N 84-21W 16M
Jul 30, 2021 - 06:53 PM EDT / 2021.07.30 2253 UTC
Wind: from the S (180 degrees) at 9 MPH (8 KT):0
Visibility: 10 mile(s):0
Sky conditions: partly cloudy
Temperature: 91.0 F (32.8 C)
Heat index: 104.0 F (40.0 C):1
Dew Point: 77.0 F (25.0 C)
Relative Humidity: 63%
Pressure (altimeter): 29.97 in. Hg (1014 hPa)
ob: KTLH 302253Z 18008KT 10SM FEW038 SCT250 33/25 A2997 RMK AO2 SLP147 T03280250
cycle: 23

Station Type Date Time Source
KTLH TAF 2021/07/30 18:22 UTC NOAA

TAF KTLH 301720Z 3018/3118 18007KT P6SM SCT070
FM310100 VRB04KT P6SM SCT250

Example: see airport list